createdAt,value
2018-08-10T00:02:13.977Z,3.57
2018-08-10T00:04:44.201Z,3.50
2018-08-10T00:07:13.524Z,3.67
2018-08-10T00:09:42.881Z,3.07
2018-08-10T00:12:12.204Z,3.57
2018-08-10T00:14:42.260Z,3.13
2018-08-10T00:17:11.755Z,3.23
2018-08-10T00:19:41.197Z,3.30
2018-08-10T00:22:10.631Z,3.00
2018-08-10T00:24:39.932Z,3.40
2018-08-10T00:27:09.285Z,3.07
2018-08-10T00:29:38.764Z,3.70
2018-08-10T00:32:08.073Z,3.40
2018-08-10T00:34:37.646Z,3.33
2018-08-10T00:37:07.048Z,3.33
2018-08-10T00:39:36.451Z,3.27
2018-08-10T00:42:05.780Z,2.90
2018-08-10T00:44:35.158Z,3.20
2018-08-10T00:47:04.944Z,2.97
2018-08-10T00:49:34.344Z,3.07
2018-08-10T00:52:03.673Z,2.73
2018-08-10T00:54:32.990Z,3.23
2018-08-10T00:57:02.328Z,3.17
2018-08-10T00:59:31.860Z,3.10
2018-08-10T01:02:01.282Z,2.73
2018-08-10T01:04:30.612Z,3.40
2018-08-10T01:07:00.525Z,3.20
2018-08-10T01:09:29.853Z,2.70
2018-08-10T01:11:59.216Z,3.10
2018-08-10T01:14:28.556Z,2.90
2018-08-10T01:16:57.909Z,3.00
2018-08-10T01:19:27.396Z,3.00
2018-08-10T01:21:56.710Z,3.20
2018-08-10T01:24:26.064Z,3.20
2018-08-10T01:26:55.433Z,2.90
2018-08-10T01:29:24.794Z,3.20
2018-08-10T01:31:54.158Z,2.90
2018-08-10T01:34:23.492Z,3.17
2018-08-10T01:36:52.825Z,2.70
2018-08-10T01:39:24.071Z,3.00
2018-08-10T01:41:53.421Z,3.23
2018-08-10T01:44:22.772Z,2.87
2018-08-10T01:46:52.096Z,3.40
2018-08-10T01:49:21.439Z,2.70
2018-08-10T01:51:50.787Z,2.80
2018-08-10T01:54:20.121Z,2.97
2018-08-10T01:56:49.478Z,2.83
2018-08-10T01:59:18.860Z,3.27
2018-08-10T02:01:48.204Z,2.90
2018-08-10T02:04:17.548Z,3.40
2018-08-10T02:06:46.908Z,3.00
2018-08-10T02:09:16.253Z,2.63
2018-08-10T02:11:45.702Z,3.13
2018-08-10T02:14:15.128Z,2.83
2018-08-10T02:16:44.472Z,3.10
2018-08-10T02:19:13.872Z,2.90
2018-08-10T02:21:49.621Z,2.90
2018-08-10T02:24:20.105Z,2.50
2018-08-10T02:26:49.453Z,2.87
2018-08-10T02:29:18.878Z,2.60
2018-08-10T02:31:48.229Z,3.07
2018-08-10T02:34:17.586Z,2.87
2018-08-10T02:36:47.291Z,2.63
2018-08-10T02:39:16.674Z,2.93
2018-08-10T02:41:46.098Z,2.50
2018-08-10T02:44:15.424Z,2.77
2018-08-10T02:46:44.733Z,2.70
2018-08-10T02:49:14.180Z,3.00
2018-08-10T02:51:43.507Z,2.50
2018-08-10T02:54:12.843Z,2.47
2018-08-10T02:56:42.211Z,2.60
2018-08-10T02:59:11.587Z,2.50
2018-08-10T03:01:40.889Z,2.70
2018-08-10T03:04:10.417Z,2.13
2018-08-10T03:06:39.745Z,2.70
2018-08-10T03:09:10.296Z,2.13
2018-08-10T03:11:39.614Z,2.63
2018-08-10T03:14:10.617Z,2.67
2018-08-10T03:16:40.722Z,2.43
2018-08-10T03:19:10.831Z,2.50
2018-08-10T03:21:40.600Z,2.30
2018-08-10T03:24:10.284Z,2.63
2018-08-10T03:26:40.026Z,2.70
2018-08-10T03:29:10.153Z,2.70
2018-08-10T03:31:39.938Z,2.60
2018-08-10T03:34:09.669Z,2.67
2018-08-10T03:36:39.433Z,2.53
2018-08-10T03:39:12.297Z,2.80
2018-08-10T03:41:42.527Z,2.50
2018-08-10T03:44:12.380Z,2.63
2018-08-10T03:46:41.959Z,2.70
2018-08-10T03:50:14.528Z,3.00
2018-08-10T03:52:44.655Z,3.03
2018-08-10T03:55:14.213Z,3.30
2018-08-10T03:57:43.817Z,3.10
2018-08-10T04:00:15.293Z,3.20
2018-08-10T04:02:44.845Z,3.00
2018-08-10T04:05:14.363Z,2.80
2018-08-10T04:07:43.782Z,3.20
2018-08-10T04:10:13.480Z,2.80
2018-08-10T04:12:43.043Z,3.00
2018-08-10T04:15:14.141Z,3.30
2018-08-10T04:17:43.753Z,3.20
2018-08-10T04:20:13.537Z,3.00
2018-08-10T04:22:43.254Z,2.67
2018-08-10T04:25:12.942Z,2.63
2018-08-10T04:27:42.470Z,3.03
2018-08-10T04:30:12.420Z,2.80
2018-08-10T04:32:41.950Z,2.43
2018-08-10T04:35:11.443Z,2.90
2018-08-10T04:37:40.972Z,2.73
2018-08-10T04:40:12.195Z,2.60
2018-08-10T04:42:41.812Z,2.90
2018-08-10T04:45:11.809Z,2.87
2018-08-10T04:47:46.511Z,2.87
2018-08-10T04:50:16.606Z,2.60
2018-08-10T04:52:46.129Z,2.13
2018-08-10T04:55:15.675Z,2.60
2018-08-10T04:57:45.196Z,2.40
2018-08-10T05:00:15.398Z,1.97
2018-08-10T05:02:44.963Z,1.90
2018-08-10T05:05:14.552Z,1.63
2018-08-10T05:07:44.176Z,1.70
2018-08-10T05:10:13.846Z,1.80
2018-08-10T05:12:43.449Z,2.00
2018-08-10T05:15:13.378Z,1.70
2018-08-10T05:17:42.837Z,1.30
2018-08-10T05:20:12.901Z,1.30
2018-08-10T05:22:42.842Z,1.50
2018-08-10T05:25:12.365Z,1.50
2018-08-10T05:27:41.906Z,1.40
2018-08-10T05:30:11.862Z,1.40
2018-08-10T05:32:41.776Z,1.70
2018-08-10T05:35:13.061Z,1.70
2018-08-10T05:37:42.640Z,1.80
2018-08-10T05:40:12.244Z,1.60
2018-08-10T05:42:41.818Z,1.40
2018-08-10T05:45:11.426Z,1.70
2018-08-10T05:47:41.116Z,1.33
2018-08-10T05:50:10.784Z,1.60
2018-08-10T05:52:40.404Z,1.33
2018-08-10T05:55:09.918Z,1.50
2018-08-10T05:57:39.461Z,1.60
2018-08-10T06:00:09.811Z,1.60
2018-08-10T06:02:39.376Z,1.63
2018-08-10T06:05:08.974Z,1.30
2018-08-10T06:07:38.745Z,1.40
2018-08-10T06:10:09.875Z,1.70
2018-08-10T06:12:39.792Z,1.60
2018-08-10T06:15:10.811Z,1.57
2018-08-10T06:17:40.921Z,1.50
2018-08-10T06:20:11.699Z,1.40
2018-08-10T06:22:41.230Z,1.47
2018-08-10T06:25:10.840Z,1.53
2018-08-10T06:27:40.315Z,1.90
2018-08-10T06:30:11.962Z,1.73
2018-08-10T06:32:41.528Z,1.77
2018-08-10T06:35:11.061Z,2.10
2018-08-10T06:37:41.910Z,1.97
2018-08-10T06:40:11.594Z,1.70
2018-08-10T06:42:41.139Z,2.07
2018-08-10T06:45:10.804Z,2.07
2018-08-10T06:47:40.357Z,2.30
2018-08-10T06:50:10.091Z,2.03
2018-08-10T06:52:39.676Z,1.60
2018-08-10T06:55:09.218Z,1.63
2018-08-10T06:57:38.742Z,1.60
2018-08-10T07:00:08.894Z,1.40
2018-08-10T07:02:38.559Z,1.30
2018-08-10T07:05:08.598Z,1.37
2018-08-10T07:07:39.196Z,1.43
2018-08-10T07:10:38.443Z,1.50
2018-08-10T07:13:07.989Z,1.80
2018-08-10T07:15:37.517Z,1.40
2018-08-10T07:18:07.217Z,1.60
2018-08-10T07:20:37.114Z,1.50
2018-08-10T07:23:06.931Z,1.60
2018-08-10T07:25:36.490Z,1.40
2018-08-10T07:28:06.192Z,6.97
2018-08-10T07:30:35.759Z,8.70
2018-08-10T07:33:05.990Z,9.90
2018-08-10T07:35:35.642Z,10.97
2018-08-10T07:38:05.304Z,9.97
2018-08-10T07:40:35.581Z,8.47
2018-08-10T07:43:05.171Z,5.63
2018-08-10T07:45:35.476Z,5.40
2018-08-10T07:48:05.085Z,5.80
2018-08-10T07:50:34.789Z,5.10
2018-08-10T07:53:05.148Z,5.13
2018-08-10T07:55:34.738Z,5.23
2018-08-10T07:58:04.364Z,4.67
2018-08-10T08:00:34.629Z,5.23
2018-08-10T08:03:04.325Z,4.87
2018-08-10T08:05:34.202Z,4.90
2018-08-10T08:08:03.855Z,5.30
2018-08-10T08:10:33.612Z,4.67
2018-08-10T08:13:03.632Z,4.73
2018-08-10T08:15:33.194Z,4.27
2018-08-10T08:18:02.896Z,4.00
2018-08-10T08:20:32.554Z,4.60
2018-08-10T08:23:04.851Z,4.17
2018-08-10T08:25:34.544Z,4.67
2018-08-10T08:28:04.118Z,4.60
2018-08-10T08:30:33.821Z,4.17
2018-08-10T08:33:03.467Z,3.90
2018-08-10T08:35:33.028Z,3.93
2018-08-10T08:38:13.406Z,4.60
2018-08-10T08:40:43.173Z,3.97
2018-08-10T08:43:14.358Z,4.13
2018-08-10T08:46:03.020Z,4.17
2018-08-10T08:48:34.956Z,3.80
2018-08-10T08:51:07.707Z,4.03
2018-08-10T08:53:37.178Z,4.13
2018-08-10T08:56:21.996Z,3.93
2018-08-10T08:58:52.292Z,3.77
2018-08-10T09:01:22.010Z,4.03
2018-08-10T09:04:57.696Z,3.80
2018-08-10T09:07:28.572Z,3.87
2018-08-10T09:09:58.813Z,4.10
2018-08-10T09:12:28.384Z,3.50
2018-08-10T09:15:01.453Z,3.43
2018-08-10T09:17:31.044Z,3.63
2018-08-10T09:20:00.653Z,3.70
2018-08-10T09:22:30.552Z,3.97
2018-08-10T09:25:00.149Z,3.50
2018-08-10T09:27:30.640Z,3.67
2018-08-10T09:30:00.308Z,3.57
2018-08-10T09:32:29.918Z,3.53
2018-08-10T09:34:59.604Z,3.50
2018-08-10T09:37:29.229Z,3.27
2018-08-10T09:39:59.010Z,3.07
2018-08-10T09:42:28.636Z,3.33
2018-08-10T09:44:58.473Z,3.30
2018-08-10T09:47:28.370Z,3.37
2018-08-10T09:49:57.956Z,3.53
2018-08-10T09:52:34.222Z,3.30
2018-08-10T09:55:22.814Z,3.20
2018-08-10T09:57:54.288Z,3.20
2018-08-10T10:00:28.911Z,2.90
2018-08-10T10:03:03.422Z,2.93
2018-08-10T10:05:33.025Z,2.80
2018-08-10T10:08:02.561Z,3.30
2018-08-10T10:10:32.289Z,2.77
2018-08-10T10:13:01.793Z,3.10
2018-08-10T10:15:31.373Z,3.13
2018-08-10T10:18:00.995Z,3.20
2018-08-10T10:37:36.064Z,2.43
2018-08-10T10:40:12.009Z,2.10
2018-08-10T10:42:41.761Z,2.10
2018-08-10T10:45:14.669Z,2.27
2018-08-10T10:47:45.944Z,2.50
2018-08-10T10:50:16.545Z,2.13
2018-08-10T10:52:46.094Z,2.73
2018-08-10T10:55:15.573Z,2.27
2018-08-10T10:57:45.486Z,4.93
2018-08-10T11:00:21.249Z,4.93
2018-08-10T11:02:51.229Z,3.47
2018-08-10T11:05:21.061Z,3.10
2018-08-10T11:07:50.767Z,3.00
2018-08-10T11:10:21.294Z,5.80
2018-08-10T11:12:50.952Z,10.60
2018-08-10T11:15:20.451Z,8.00
2018-08-10T11:17:50.045Z,8.80
2018-08-10T11:20:19.996Z,7.40
2018-08-10T11:22:49.646Z,6.40
2018-08-10T11:25:19.385Z,6.40
2018-08-10T11:27:48.942Z,5.93
2018-08-10T11:30:18.663Z,5.73
2018-08-10T11:32:48.288Z,4.80
2018-08-10T11:35:17.934Z,4.90
2018-08-10T11:37:47.516Z,4.60
2018-08-10T11:40:17.234Z,4.93
2018-08-10T11:42:46.964Z,4.20
2018-08-10T11:45:17.915Z,4.80
2018-08-10T11:47:47.490Z,4.60
2018-08-10T11:50:17.825Z,4.17
2018-08-10T11:52:48.037Z,3.57
2018-08-10T11:55:17.621Z,3.67
2018-08-10T11:57:47.178Z,3.10
2018-08-10T12:00:16.848Z,2.70
2018-08-10T12:02:46.324Z,2.93
2018-08-10T12:05:15.834Z,2.97
2018-08-10T12:07:45.627Z,2.80
2018-08-10T12:10:15.269Z,2.90
2018-08-10T12:12:45.064Z,2.77
2018-08-10T12:15:15.005Z,3.10
2018-08-10T12:17:44.989Z,3.23
2018-08-10T12:20:14.894Z,2.97
2018-08-10T12:22:44.571Z,3.10
2018-08-10T12:25:14.524Z,2.93
2018-08-10T12:27:44.152Z,2.60
2018-08-10T12:30:19.455Z,2.73
2018-08-10T12:32:50.446Z,2.53
2018-08-10T12:35:20.126Z,2.87
2018-08-10T12:37:53.265Z,2.70
2018-08-10T12:40:23.040Z,2.50
2018-08-10T12:42:52.510Z,2.50
2018-08-10T12:45:22.254Z,3.00
2018-08-10T12:47:53.449Z,2.70
2018-08-10T12:50:23.063Z,2.90
2018-08-10T12:52:52.656Z,3.13
2018-08-10T12:55:22.617Z,2.60
2018-08-10T12:57:52.256Z,3.07
2018-08-10T13:00:21.922Z,3.20
2018-08-10T13:02:51.476Z,3.07
2018-08-10T13:05:21.172Z,2.93
2018-08-10T13:07:50.717Z,2.93
2018-08-10T13:10:20.347Z,3.20
2018-08-10T13:12:49.823Z,2.70
2018-08-10T13:15:19.328Z,3.00
2018-08-10T13:17:48.964Z,3.13
2018-08-10T13:20:18.942Z,2.70
2018-08-10T13:22:48.532Z,2.60
2018-08-10T13:25:18.067Z,2.60
2018-08-10T13:27:49.079Z,2.93
2018-08-10T13:31:21.868Z,2.30
2018-08-10T13:33:51.479Z,2.63
2018-08-10T13:36:21.008Z,2.90
2018-08-10T13:38:50.524Z,2.20
2018-08-10T13:41:20.106Z,2.33
2018-08-10T13:43:49.664Z,2.30
2018-08-10T13:46:19.294Z,2.37
2018-08-10T13:48:48.873Z,2.60
2018-08-10T13:51:18.899Z,2.23
2018-08-10T13:53:48.499Z,2.37
2018-08-10T13:56:18.085Z,2.27
2018-08-10T13:58:47.868Z,2.50
2018-08-10T14:01:17.508Z,2.30
2018-08-10T14:03:47.100Z,2.10
2018-08-10T14:06:16.819Z,2.07
2018-08-10T14:08:46.316Z,2.00
2018-08-10T14:11:15.885Z,2.30
2018-08-10T14:13:45.404Z,2.07
2018-08-10T14:16:14.962Z,2.50
2018-08-10T14:18:44.488Z,2.07
2018-08-10T14:21:14.196Z,2.17
2018-08-10T14:23:43.825Z,2.40
2018-08-10T14:26:13.452Z,2.20
2018-08-10T14:28:43.006Z,2.00
2018-08-10T14:31:12.569Z,2.00
2018-08-10T14:33:42.090Z,2.20
2018-08-10T14:36:11.629Z,2.10
2018-08-10T14:38:41.178Z,2.03
2018-08-10T14:41:10.853Z,2.00
2018-08-10T14:43:40.488Z,2.03
2018-08-10T14:46:10.038Z,1.93
2018-08-10T14:48:39.583Z,2.27
2018-08-10T14:51:09.606Z,1.77
2018-08-10T14:53:39.276Z,1.97
2018-08-10T14:56:09.344Z,1.87
2018-08-10T14:58:38.825Z,2.03
2018-08-10T15:01:08.391Z,1.73
2018-08-10T15:03:38.016Z,1.90
2018-08-10T15:06:07.728Z,1.73
2018-08-10T15:08:37.358Z,1.80
2018-08-10T15:11:07.145Z,1.73
2018-08-10T15:13:36.705Z,2.20
2018-08-10T15:16:06.371Z,1.90
2018-08-10T15:18:35.959Z,1.80
2018-08-10T15:21:05.510Z,1.77
2018-08-10T15:23:35.200Z,1.50
2018-08-10T15:26:04.880Z,1.90
2018-08-10T15:28:34.888Z,1.77
2018-08-10T15:31:04.496Z,1.57
2018-08-10T15:33:34.107Z,1.50
2018-08-10T15:36:03.742Z,2.10
2018-08-10T15:38:33.249Z,1.57
2018-08-10T15:41:02.830Z,1.73
2018-08-10T15:43:32.382Z,1.50
2018-08-10T15:46:01.939Z,1.77
2018-08-10T15:48:31.554Z,1.40
2018-08-10T15:51:01.145Z,1.80
2018-08-10T15:53:30.726Z,1.63
2018-08-10T15:56:00.559Z,1.60
2018-08-10T15:58:30.301Z,1.77
2018-08-10T16:00:59.964Z,1.60
2018-08-10T16:03:29.538Z,1.60
2018-08-10T16:05:59.059Z,1.73
2018-08-10T16:08:28.983Z,1.63
2018-08-10T16:10:58.638Z,1.70
2018-08-10T16:13:28.208Z,1.87
2018-08-10T16:15:57.833Z,1.50
2018-08-10T16:18:27.608Z,1.73
2018-08-10T16:20:57.224Z,1.77
2018-08-10T16:23:26.814Z,1.50
2018-08-10T16:25:56.293Z,1.67
2018-08-10T16:28:25.886Z,1.37
2018-08-10T16:30:55.451Z,1.53
2018-08-10T16:33:25.791Z,1.60
2018-08-10T16:35:55.406Z,1.43
2018-08-10T16:38:24.945Z,1.57
2018-08-10T16:40:54.589Z,1.50
2018-08-10T16:43:24.357Z,1.60
2018-08-10T16:45:53.881Z,1.47
2018-08-10T16:48:23.466Z,1.50
2018-08-10T16:50:52.999Z,1.90
2018-08-10T16:53:22.534Z,1.60
2018-08-10T16:55:52.104Z,1.87
2018-08-10T16:58:21.859Z,1.87
2018-08-10T17:00:51.764Z,2.20
2018-08-10T17:03:21.452Z,2.07
2018-08-10T17:05:51.114Z,2.30
2018-08-10T17:08:20.665Z,3.03
2018-08-10T17:10:51.403Z,2.97
2018-08-10T17:13:21.792Z,2.67
2018-08-10T17:15:52.960Z,2.97
2018-08-10T17:18:25.133Z,15.70
2018-08-10T17:20:56.220Z,10.23
2018-08-10T17:23:27.117Z,22.43
2018-08-10T17:25:56.685Z,25.47
2018-08-10T17:28:26.712Z,29.97
2018-08-10T17:30:56.516Z,38.77
2018-08-10T17:33:26.175Z,50.67
2018-08-10T17:35:55.684Z,81.20
2018-08-10T17:38:25.334Z,81.50
2018-08-10T17:40:54.842Z,56.93
2018-08-10T17:43:24.687Z,57.33
2018-08-10T17:45:54.245Z,46.30
2018-08-10T17:48:23.823Z,43.73
2018-08-10T17:50:53.494Z,44.10
2018-08-10T17:53:23.061Z,46.47
2018-08-10T17:55:52.574Z,40.47
2018-08-10T17:58:22.118Z,38.70
2018-08-10T18:00:51.908Z,34.40
2018-08-10T18:03:21.446Z,33.30
2018-08-10T18:05:51.076Z,32.00
2018-08-10T18:08:20.662Z,31.30
2018-08-10T18:10:50.341Z,27.27
2018-08-10T18:13:19.915Z,26.00
2018-08-10T18:15:49.893Z,26.17
2018-08-10T18:18:19.420Z,17.43
2018-08-10T18:20:49.119Z,16.50
2018-08-10T18:23:18.672Z,16.17
2018-08-10T18:25:48.189Z,14.03
2018-08-10T18:28:17.829Z,13.60
2018-08-10T18:30:47.458Z,12.67
2018-08-10T18:33:17.099Z,11.57
2018-08-10T18:35:46.748Z,10.83
2018-08-10T18:38:16.443Z,11.50
2018-08-10T18:40:46.110Z,11.07
2018-08-10T18:43:15.618Z,14.90
2018-08-10T18:45:46.394Z,18.90
2018-08-10T18:48:17.163Z,16.80
2018-08-10T18:50:49.665Z,16.00
2018-08-10T18:53:19.230Z,17.07
2018-08-10T18:55:48.717Z,14.93
2018-08-10T18:58:18.282Z,19.53
2018-08-10T19:00:47.845Z,17.37
2018-08-10T19:03:17.533Z,23.57
2018-08-10T19:05:47.080Z,28.33
2018-08-10T19:08:16.612Z,29.00
2018-08-10T19:10:46.217Z,27.93
2018-08-10T19:13:15.812Z,23.07
2018-08-10T19:15:45.297Z,20.97
2018-08-10T19:18:14.914Z,16.23
2018-08-10T19:20:45.444Z,17.90
2018-08-10T19:23:15.106Z,16.03
2018-08-10T19:25:44.648Z,14.77
2018-08-10T19:28:14.193Z,14.13
2018-08-10T19:30:43.854Z,14.20
2018-08-10T19:33:13.435Z,13.37
2018-08-10T19:35:43.910Z,12.00
2018-08-10T19:38:14.667Z,9.77
2018-08-10T19:40:44.454Z,8.77
2018-08-10T19:43:14.012Z,3.70
2018-08-10T19:45:43.798Z,2.20
2018-08-10T19:48:15.716Z,2.00
2018-08-10T19:50:48.426Z,1.27
2018-08-10T19:53:18.153Z,0.93
2018-08-10T19:55:48.052Z,1.20
2018-08-10T19:58:17.636Z,0.93
2018-08-10T20:00:47.264Z,0.90
2018-08-10T20:03:16.885Z,0.87
2018-08-10T20:05:46.726Z,0.97
2018-08-10T20:08:16.351Z,1.00
2018-08-10T20:10:46.040Z,0.97
2018-08-10T20:13:15.732Z,0.90
2018-08-10T20:15:45.355Z,1.27
2018-08-10T20:18:15.423Z,0.80
2018-08-10T20:20:45.425Z,0.90
2018-08-10T20:23:15.401Z,0.80
2018-08-10T20:25:45.205Z,1.00
2018-08-10T20:28:14.265Z,0.60
2018-08-10T20:30:43.773Z,1.00
2018-08-10T20:33:13.024Z,0.93
2018-08-10T20:35:42.638Z,0.80
2018-08-10T20:38:12.708Z,0.97
2018-08-10T20:40:42.905Z,0.97
2018-08-10T20:43:12.254Z,0.90
2018-08-10T20:45:41.586Z,0.90
2018-08-10T20:48:13.437Z,1.00
2018-08-10T20:50:45.306Z,0.87
2018-08-10T20:53:15.080Z,1.20
2018-08-10T20:55:46.037Z,1.00
2018-08-10T20:58:15.341Z,0.93
2018-08-10T21:00:46.764Z,0.87
2018-08-10T21:03:19.758Z,1.00
2018-08-10T21:05:50.134Z,1.20
2018-08-10T21:08:34.012Z,0.80
2018-08-10T21:11:03.569Z,1.00
2018-08-10T21:13:33.099Z,0.90
2018-08-10T21:16:02.442Z,0.80
2018-08-10T21:18:31.792Z,0.93
2018-08-10T21:21:01.557Z,0.80
2018-08-10T21:23:30.874Z,0.90
2018-08-10T21:26:00.996Z,0.90
2018-08-10T21:28:30.349Z,0.97
2018-08-10T21:30:59.781Z,1.00
2018-08-10T21:33:29.103Z,0.90
2018-08-10T21:35:58.437Z,0.70
2018-08-10T21:38:27.857Z,1.10
2018-08-10T21:40:57.277Z,0.90
2018-08-10T21:43:26.623Z,0.60
2018-08-10T21:45:55.978Z,1.00
2018-08-10T21:48:25.636Z,1.00
2018-08-10T21:50:55.003Z,0.77
2018-08-10T21:53:24.767Z,1.00
2018-08-10T21:55:54.218Z,0.80
2018-08-10T21:58:23.592Z,0.60
2018-08-10T22:00:58.394Z,1.10
2018-08-10T22:03:27.722Z,0.90
2018-08-10T22:05:57.036Z,0.90
2018-08-10T22:08:26.600Z,0.90
2018-08-10T22:10:56.458Z,0.87
2018-08-10T22:13:30.911Z,0.83
2018-08-10T22:16:05.380Z,1.00
2018-08-10T22:18:39.784Z,1.00
2018-08-10T22:21:09.157Z,1.10
2018-08-10T22:23:38.591Z,0.90
2018-08-10T22:26:08.018Z,1.00
2018-08-10T22:28:37.670Z,0.80
2018-08-10T22:31:07.408Z,0.80
2018-08-10T22:33:36.727Z,0.90
2018-08-10T22:36:06.088Z,0.87
2018-08-10T22:38:35.414Z,1.10
2018-08-10T22:41:04.994Z,0.80
2018-08-10T22:43:34.328Z,0.73
2018-08-10T22:46:03.665Z,0.90
2018-08-10T22:48:32.996Z,1.20
2018-08-10T22:51:02.365Z,0.80
2018-08-10T22:53:31.714Z,0.83
2018-08-10T22:56:01.115Z,0.83
2018-08-10T22:58:30.453Z,0.90
2018-08-10T23:01:00.222Z,0.90
2018-08-10T23:03:29.545Z,0.90
2018-08-10T23:05:58.883Z,0.80
2018-08-10T23:08:28.279Z,0.77
2018-08-10T23:10:57.621Z,0.90
2018-08-10T23:13:27.173Z,1.00
2018-08-10T23:15:56.765Z,0.87
2018-08-10T23:18:26.114Z,0.90
2018-08-10T23:20:55.505Z,1.03
2018-08-10T23:23:24.859Z,1.07
2018-08-10T23:25:54.193Z,0.93
2018-08-10T23:28:23.545Z,1.10
2018-08-10T23:30:52.873Z,0.77
2018-08-10T23:33:22.196Z,1.10
2018-08-10T23:35:51.513Z,1.00
2018-08-10T23:38:20.826Z,1.10
2018-08-10T23:40:50.251Z,0.77
2018-08-10T23:43:19.570Z,0.90
2018-08-10T23:45:48.951Z,1.00
2018-08-10T23:48:18.290Z,1.10
2018-08-10T23:50:47.720Z,0.77
2018-08-10T23:53:17.039Z,0.90
2018-08-10T23:55:46.404Z,0.90
2018-08-10T23:58:15.924Z,0.97
